createdAt,value
2023-04-10T00:03:17.892Z,21.03
2023-04-10T00:08:24.372Z,18.90
2023-04-10T00:13:27.179Z,18.87
2023-04-10T00:18:29.475Z,17.53
2023-04-10T00:23:32.738Z,17.67
2023-04-10T00:28:38.183Z,22.03
2023-04-10T00:33:40.553Z,30.70
2023-04-10T00:38:42.920Z,20.10
2023-04-10T00:43:45.846Z,19.80
2023-04-10T00:48:48.249Z,25.87
2023-04-10T00:53:51.657Z,24.43
2023-04-10T00:58:54.129Z,21.17
2023-04-10T01:03:57.036Z,27.13
2023-04-10T01:09:10.002Z,28.30
2023-04-10T01:14:35.569Z,27.70
2023-04-10T01:20:00.775Z,28.50
2023-04-10T01:25:40.441Z,23.13
2023-04-10T01:30:46.511Z,18.93
2023-04-10T01:35:55.002Z,19.80
2023-04-10T01:40:59.719Z,18.87
2023-04-10T01:46:05.423Z,17.47
2023-04-10T01:51:11.209Z,20.77
2023-04-10T01:56:13.901Z,17.30
2023-04-10T02:01:29.533Z,21.03
2023-04-10T02:07:04.774Z,18.10
2023-04-10T02:12:11.156Z,16.23
2023-04-10T02:17:22.442Z,24.83
2023-04-10T02:22:28.345Z,21.63
2023-04-10T02:27:36.525Z,18.10
2023-04-10T02:32:38.840Z,21.17
2023-04-10T02:37:43.628Z,15.97
2023-04-10T02:42:46.505Z,20.90
2023-04-10T02:47:49.061Z,24.03
2023-04-10T02:52:51.941Z,14.87
2023-04-10T02:57:54.315Z,15.17
2023-04-10T03:02:56.840Z,28.33
2023-04-10T03:08:01.856Z,18.03
2023-04-10T03:13:04.659Z,18.93
2023-04-10T03:18:07.696Z,17.50
2023-04-10T03:23:11.013Z,16.63
2023-04-10T03:28:13.273Z,18.20
2023-04-10T03:33:16.053Z,19.70
2023-04-10T03:38:18.425Z,26.60
2023-04-10T03:43:21.214Z,38.77
2023-04-10T03:48:23.881Z,20.23
2023-04-10T03:53:26.952Z,19.30
2023-04-10T03:58:30.170Z,15.30
2023-04-10T04:03:33.314Z,14.73
2023-04-10T04:08:39.143Z,15.47
2023-04-10T04:13:41.363Z,19.23
2023-04-10T04:19:02.980Z,16.63
2023-04-10T04:24:13.065Z,15.57
2023-04-10T04:29:44.602Z,16.87
2023-04-10T04:35:07.624Z,15.97
2023-04-10T04:40:18.970Z,19.80
2023-04-10T04:45:46.147Z,18.73
2023-04-10T04:51:27.170Z,16.77
2023-04-10T04:56:40.384Z,17.60
2023-04-10T05:02:01.626Z,16.50
2023-04-10T05:07:33.031Z,15.93
2023-04-10T05:12:50.391Z,15.37
2023-04-10T05:18:04.204Z,14.90
2023-04-10T05:23:29.558Z,16.03
2023-04-10T05:28:50.705Z,20.60
2023-04-10T05:34:05.446Z,16.73
2023-04-10T05:39:15.781Z,15.50
2023-04-10T05:44:44.306Z,20.03
2023-04-10T05:50:12.860Z,16.63
2023-04-10T05:55:38.233Z,15.97
2023-04-10T06:00:59.605Z,16.80
2023-04-10T06:06:33.967Z,15.63
2023-04-10T06:11:36.707Z,20.43
2023-04-10T06:16:39.705Z,27.93
2023-04-10T06:21:42.056Z,16.03
2023-04-10T06:26:44.454Z,16.10
2023-04-10T06:31:47.020Z,15.90
2023-04-10T06:36:49.512Z,13.43
2023-04-10T06:41:51.917Z,29.37
2023-04-10T06:47:18.365Z,46.23
2023-04-10T06:52:21.067Z,62.50
2023-04-10T06:57:23.437Z,18.90
2023-04-10T07:02:25.938Z,17.90
2023-04-10T07:07:29.278Z,15.20
2023-04-10T07:12:31.510Z,15.43
2023-04-10T07:17:33.941Z,14.67
2023-04-10T07:22:36.204Z,14.20
2023-04-10T07:27:38.890Z,14.40
2023-04-10T07:32:42.439Z,17.07
2023-04-10T07:37:44.920Z,16.03
2023-04-10T07:42:47.632Z,18.33
2023-04-10T07:47:50.009Z,31.10
2023-04-10T07:52:52.348Z,67.03
2023-04-10T07:57:54.751Z,23.70
2023-04-10T08:02:57.246Z,20.30
2023-04-10T08:07:59.959Z,24.87
2023-04-10T08:13:02.207Z,33.17
2023-04-10T08:18:04.506Z,38.17
2023-04-10T08:28:15.696Z,21.67
2023-04-10T08:33:17.958Z,26.83
2023-04-10T08:38:21.517Z,21.93
2023-04-10T08:43:24.056Z,29.77
2023-04-10T08:48:43.793Z,22.43
2023-04-10T08:53:48.392Z,19.57
2023-04-10T08:58:52.032Z,15.90
2023-04-10T09:03:55.130Z,13.80
2023-04-10T09:14:24.027Z,14.47
2023-04-10T09:19:31.071Z,13.37
2023-04-10T09:24:44.830Z,13.37
2023-04-10T09:29:52.161Z,15.60
2023-04-10T09:34:56.812Z,20.10
2023-04-10T09:39:59.739Z,25.07
2023-04-10T09:45:03.041Z,7.77
2023-04-10T09:50:05.724Z,16.00
2023-04-10T09:55:08.882Z,24.70
2023-04-10T10:00:14.142Z,19.27
2023-04-10T10:05:16.828Z,27.73
2023-04-10T10:10:19.368Z,20.57
2023-04-10T10:15:36.434Z,21.33
2023-04-10T10:20:41.729Z,18.23
2023-04-10T10:25:45.529Z,20.13
2023-04-10T10:30:52.133Z,18.70
2023-04-10T10:35:56.786Z,27.50
2023-04-10T10:41:18.425Z,16.83
2023-04-10T10:46:24.344Z,20.87
2023-04-10T10:51:49.952Z,25.73
2023-04-10T10:56:52.228Z,34.97
2023-04-10T11:02:17.254Z,17.40
2023-04-10T11:07:19.946Z,43.07
2023-04-10T11:12:23.913Z,16.03
2023-04-10T11:17:48.057Z,14.97
2023-04-10T11:23:12.810Z,20.70
2023-04-10T11:28:33.336Z,20.87
2023-04-10T11:33:37.063Z,12.87
2023-04-10T11:38:39.409Z,30.67
2023-04-10T11:43:41.682Z,24.20
2023-04-10T11:48:44.086Z,23.83
2023-04-10T11:53:49.982Z,10.00
2023-04-10T11:58:54.708Z,10.10
2023-04-10T12:03:57.782Z,12.03
2023-04-10T12:09:00.316Z,12.53
2023-04-10T12:14:02.733Z,10.97
2023-04-10T12:19:05.361Z,9.90
2023-04-10T12:24:07.750Z,13.60
2023-04-10T12:29:10.047Z,10.77
2023-04-10T12:34:18.966Z,9.27
2023-04-10T12:39:25.544Z,12.50
2023-04-10T12:44:27.860Z,12.33
2023-04-10T12:49:30.296Z,13.73
2023-04-10T12:54:34.957Z,15.73
2023-04-10T12:59:37.463Z,12.33
2023-04-10T13:04:40.096Z,10.80
2023-04-10T13:09:42.808Z,21.90
2023-04-10T13:14:46.218Z,10.83
2023-04-10T13:19:48.976Z,10.60
2023-04-10T13:24:51.261Z,11.93
2023-04-10T13:29:53.598Z,11.30
2023-04-10T13:34:57.758Z,9.80
2023-04-10T13:40:00.049Z,10.50
2023-04-10T13:45:02.562Z,9.70
2023-04-10T13:50:05.389Z,8.80
2023-04-10T13:55:08.221Z,9.07
2023-04-10T14:00:11.086Z,8.10
2023-04-10T14:05:17.374Z,9.50
2023-04-10T14:10:20.848Z,13.50
2023-04-10T14:15:23.354Z,11.53
2023-04-10T14:20:25.798Z,9.97
2023-04-10T14:25:28.358Z,9.07
2023-04-10T14:30:32.670Z,9.70
2023-04-10T14:35:35.206Z,8.73
2023-04-10T14:40:37.806Z,8.43
2023-04-10T14:45:40.124Z,8.77
2023-04-10T14:50:42.605Z,7.97
2023-04-10T14:55:44.949Z,7.13
2023-04-10T15:00:47.345Z,7.97
2023-04-10T15:05:49.624Z,7.80
2023-04-10T15:10:52.748Z,7.07
2023-04-10T15:15:55.583Z,6.97
2023-04-10T15:20:57.801Z,5.60
2023-04-10T15:26:00.237Z,6.37
2023-04-10T15:31:02.499Z,7.17
2023-04-10T15:36:07.813Z,7.72
2023-04-10T15:41:11.530Z,10.47
2023-04-10T15:46:15.093Z,6.03
2023-04-10T15:51:17.487Z,8.37
2023-04-10T15:56:19.822Z,10.07
2023-04-10T16:01:22.180Z,12.60
2023-04-10T16:06:25.992Z,8.60
2023-04-10T16:11:28.668Z,13.97
2023-04-10T16:16:30.958Z,9.57
2023-04-10T16:21:33.265Z,9.37
2023-04-10T16:26:35.692Z,9.80
2023-04-10T16:31:37.981Z,11.73
2023-04-10T16:36:40.581Z,11.10
2023-04-10T16:41:44.707Z,15.37
2023-04-10T16:46:46.989Z,11.67
2023-04-10T16:51:50.221Z,11.20
2023-04-10T16:56:52.586Z,7.73
2023-04-10T17:01:54.984Z,10.33
2023-04-10T17:06:57.312Z,16.33
2023-04-10T17:11:59.739Z,14.87
2023-04-10T17:17:02.148Z,29.20
2023-04-10T17:22:04.629Z,18.60
2023-04-10T17:27:06.923Z,16.93
2023-04-10T17:32:09.534Z,31.77
2023-04-10T17:37:12.462Z,20.63
2023-04-10T17:42:14.721Z,14.93
2023-04-10T17:47:17.375Z,17.13
2023-04-10T17:52:19.642Z,17.07
2023-04-10T17:57:21.960Z,21.40
2023-04-10T18:02:24.357Z,14.93
2023-04-10T18:07:26.672Z,18.83
2023-04-10T18:12:28.983Z,18.90
2023-04-10T18:17:31.356Z,23.60
2023-04-10T18:22:33.820Z,21.07
2023-04-10T18:27:36.608Z,41.47
2023-04-10T18:32:38.886Z,36.47
2023-04-10T18:37:42.345Z,32.40
2023-04-10T18:42:44.617Z,36.53
2023-04-10T18:47:47.059Z,37.60
2023-04-10T18:52:49.485Z,54.87
2023-04-10T18:57:51.719Z,51.80
2023-04-10T19:02:55.251Z,47.17
2023-04-10T19:08:04.161Z,46.30
2023-04-10T19:13:09.195Z,42.20
2023-04-10T19:18:13.933Z,39.63
2023-04-10T19:23:18.109Z,31.47
2023-04-10T19:28:20.875Z,33.43
2023-04-10T19:33:23.304Z,47.80
2023-04-10T19:38:27.662Z,57.20
2023-04-10T19:43:30.140Z,54.30
2023-04-10T19:48:32.891Z,52.77
2023-04-10T19:53:35.171Z,51.47
2023-04-10T19:58:41.089Z,50.13
2023-04-10T20:03:44.370Z,49.83
2023-04-10T20:08:46.881Z,54.80
2023-04-10T20:13:49.167Z,62.07
2023-04-10T20:18:54.992Z,78.50
2023-04-10T20:23:57.714Z,55.20
2023-04-10T20:29:01.049Z,52.83
2023-04-10T20:34:03.558Z,48.43
2023-04-10T20:39:06.415Z,50.03
2023-04-10T20:44:08.711Z,62.13
2023-04-10T20:49:15.699Z,57.43
2023-04-10T20:54:19.093Z,53.47
2023-04-10T20:59:21.520Z,49.63
2023-04-10T21:04:23.848Z,47.53
2023-04-10T21:09:26.248Z,44.27
2023-04-10T21:14:28.496Z,39.83
2023-04-10T21:19:30.872Z,45.70
2023-04-10T21:24:33.192Z,55.13
2023-04-10T21:29:35.458Z,59.60
2023-04-10T21:34:37.825Z,54.47
2023-04-10T21:39:43.893Z,50.87
2023-04-10T21:44:46.190Z,46.77
2023-04-10T21:49:48.447Z,49.43
2023-04-10T21:54:50.717Z,56.93
2023-04-10T21:59:53.034Z,48.73
2023-04-10T22:04:55.347Z,48.23
2023-04-10T22:09:57.654Z,43.50
2023-04-10T22:15:00.228Z,43.23
2023-04-10T22:20:02.650Z,53.83
2023-04-10T22:25:05.514Z,53.70
2023-04-10T22:30:10.940Z,56.23
2023-04-10T22:35:13.218Z,60.03
2023-04-10T22:40:15.960Z,45.43
2023-04-10T22:45:18.303Z,43.37
2023-04-10T22:50:21.203Z,32.10
2023-04-10T22:55:23.535Z,28.17
2023-04-10T23:00:25.946Z,26.20
2023-04-10T23:05:28.809Z,29.33
2023-04-10T23:10:31.096Z,26.70
2023-04-10T23:15:33.857Z,25.53
2023-04-10T23:20:51.402Z,24.50
2023-04-10T23:26:00.501Z,25.30
2023-04-10T23:31:02.967Z,25.30
2023-04-10T23:36:06.135Z,25.23
2023-04-10T23:41:08.580Z,24.60
2023-04-10T23:46:11.095Z,37.57
2023-04-10T23:51:13.435Z,29.23
2023-04-10T23:56:15.813Z,27.43
